Time;durP1;ratioP1;P1;durP2;ratioP2;P2;SDS_P1;SDS_P2;PMS_P1;PMS_P2;Temp;Humidity;BMP_temperature;BMP_pressure;BME280_temperature;BME280_humidity;BME280_pressure;Samples;Min_cycle;Max_cycle;Signal;HPM_P1;HPM_P2
2021/11/25 00:00:11;;;;;;;11.02;8.45;;;;;;;4.38;73.22;93984.94;5101140;28;20028;-50
2021/11/25 00:02:37;;;;;;;15.70;8.32;;;;;;;4.37;73.44;93991.66;5098883;28;20469;-46
2021/11/25 00:05:04;;;;;;;10.02;6.55;;;;;;;4.34;73.08;94001.59;5101116;28;20032;-48
2021/11/25 00:07:30;;;;;;;10.55;7.05;;;;;;;4.20;73.56;94010.75;5100910;28;20032;-47
2021/11/25 00:09:55;;;;;;;9.05;7.28;;;;;;;4.29;73.63;94005.06;5100460;28;20162;-47
2021/11/25 00:12:20;;;;;;;11.98;6.78;;;;;;;4.22;73.81;94002.81;5098219;28;20023;-47
2021/11/25 00:14:46;;;;;;;11.25;6.97;;;;;;;4.30;73.40;94006.56;5100766;28;20480;-47
2021/11/25 00:17:11;;;;;;;9.57;6.47;;;;;;;4.27;73.04;94015.75;5098436;28;20470;-48
2021/11/25 00:19:37;;;;;;;10.13;8.73;;;;;;;4.16;74.02;93999.31;5098823;28;20024;-47
2021/11/25 00:22:03;;;;;;;13.15;8.82;;;;;;;4.06;74.29;93997.31;5098971;28;20319;-48
2021/11/25 00:24:28;;;;;;;10.25;6.70;;;;;;;4.00;74.46;94002.78;5098482;28;20031;-48
2021/11/25 00:26:54;;;;;;;18.27;10.48;;;;;;;4.07;74.69;93996.09;5100298;28;20032;-48
2021/11/25 00:29:20;;;;;;;9.10;6.95;;;;;;;3.74;75.10;93978.38;5096647;28;20032;-46
2021/11/25 00:31:45;;;;;;;13.07;9.25;;;;;;;4.02;75.46;93994.81;5098093;28;20034;-47
2021/11/25 00:34:11;;;;;;;12.27;6.00;;;;;;;3.95;75.21;94000.00;5098176;28;20488;-48
2021/11/25 00:36:36;;;;;;;8.63;6.35;;;;;;;3.97;74.48;93994.78;5099233;28;20035;-46
2021/11/25 00:39:02;;;;;;;7.43;6.03;;;;;;;3.99;74.93;94004.00;5098056;28;20030;-48
2021/11/25 00:41:28;;;;;;;17.95;10.95;;;;;;;4.00;75.06;93991.84;5099818;28;20504;-45
2021/11/25 00:43:53;;;;;;;7.95;6.18;;;;;;;3.96;75.03;94007.72;5099968;28;20020;-45
2021/11/25 00:46:19;;;;;;;9.40;6.47;;;;;;;3.90;75.29;93998.75;5099712;28;20389;-49
2021/11/25 00:48:44;;;;;;;8.00;6.60;;;;;;;3.96;75.78;94007.72;5098155;28;20058;-45
2021/11/25 00:51:10;;;;;;;7.22;6.32;;;;;;;3.93;75.53;93999.75;5097045;28;20035;-46
2021/11/25 00:53:36;;;;;;;10.75;8.95;;;;;;;4.00;75.77;94002.03;5099288;28;20030;-45
2021/11/25 00:56:02;;;;;;;8.70;6.72;;;;;;;3.90;75.35;94001.47;5099610;28;20477;-46
2021/11/25 00:58:27;;;;;;;8.93;7.15;;;;;;;4.00;75.52;93991.09;5096327;28;20393;-45
2021/11/25 01:00:52;;;;;;;8.25;5.97;;;;;;;4.04;75.14;93989.63;5097865;28;20027;-47
2021/11/25 01:03:18;;;;;;;11.32;6.65;;;;;;;4.00;75.21;93986.38;5099375;28;20096;-45
2021/11/25 01:05:44;;;;;;;9.68;6.03;;;;;;;3.91;75.25;93980.38;5098668;27;20024;-45
2021/11/25 01:08:09;;;;;;;9.95;7.65;;;;;;;3.83;76.39;93980.13;5099663;28;20110;-45
2021/11/25 01:10:35;;;;;;;8.93;7.88;;;;;;;3.91;75.99;93972.94;5099970;28;20027;-47
2021/11/25 01:13:00;;;;;;;69.05;30.73;;;;;;;3.93;75.88;93967.72;5096630;28;20122;-49
2021/11/25 01:15:29;;;;;;;22.75;14.07;;;;;;;3.98;75.63;93977.19;5099617;28;20028;-47
2021/11/25 01:18:12;;;;;;;7.40;6.35;;;;;;;4.04;74.90;93978.69;5098892;28;20066;-48
2021/11/25 01:20:40;;;;;;;12.90;7.22;;;;;;;3.98;75.64;93977.94;5099516;28;20060;-47
2021/11/25 01:23:08;;;;;;;14.05;8.52;;;;;;;3.77;75.39;93965.69;5099078;28;20551;-49
2021/11/25 01:25:34;;;;;;;11.30;8.65;;;;;;;3.73;76.15;93946.06;5098219;28;20031;-48
2021/11/25 01:27:59;;;;;;;10.00;7.40;;;;;;;3.93;76.01;93964.25;5099349;28;20024;-47
2021/11/25 01:30:25;;;;;;;11.95;7.93;;;;;;;3.96;75.54;93968.72;5099361;28;20034;-46
2021/11/25 01:32:51;;;;;;;9.93;7.85;;;;;;;3.92;76.11;93973.69;5099350;28;20028;-48
2021/11/25 01:35:16;;;;;;;11.48;9.05;;;;;;;3.89;75.74;93961.00;5097968;28;20089;-48
2021/11/25 01:37:42;;;;;;;10.32;8.35;;;;;;;3.83;76.02;93964.47;5098091;28;20043;-49
2021/11/25 01:40:11;;;;;;;10.75;7.40;;;;;;;3.76;76.27;93956.00;5099064;28;20047;-51
2021/11/25 01:42:36;;;;;;;;;;;;;;;3.68;76.96;93960.47;5096775;28;20027;-50
2021/11/25 01:45:03;;;;;;;9.55;7.35;;;;;;;3.51;76.49;93940.56;5097765;28;19912;-48
2021/11/25 01:47:29;;;;;;;9.85;7.65;;;;;;;3.50;77.53;93953.44;5098328;28;20032;-49
2021/11/25 01:49:54;;;;;;;9.85;8.05;;;;;;;3.50;77.74;93952.69;5099075;28;20116;-49
2021/11/25 01:52:20;;;;;;;10.05;8.98;;;;;;;3.53;77.42;93946.28;5096404;28;20031;-49
2021/11/25 01:54:45;;;;;;;14.30;9.25;;;;;;;3.39;77.79;93952.66;5096482;28;20050;-48
2021/11/25 01:57:11;;;;;;;9.65;8.30;;;;;;;3.45;78.02;93947.97;5095802;28;20107;-47
2021/11/25 01:59:37;;;;;;;16.27;9.63;;;;;;;3.47;77.79;93948.22;5097367;28;20408;-49
2021/11/25 02:02:04;;;;;;;12.57;9.45;;;;;;;3.58;77.64;93940.06;5096887;28;20425;-47
2021/11/25 02:04:30;;;;;;;12.60;8.60;;;;;;;3.53;77.04;93940.81;5097800;28;20035;-49
2021/11/25 02:06:55;;;;;;;13.15;9.38;;;;;;;3.55;77.26;93941.06;5097992;28;20031;-48
2021/11/25 02:09:21;;;;;;;11.18;8.98;;;;;;;3.38;77.26;93910.25;5099203;28;20497;-47
2021/11/25 02:11:47;;;;;;;10.75;8.20;;;;;;;3.67;76.64;93943.34;5101444;28;20424;-48
2021/11/25 02:14:13;;;;;;;16.77;9.85;;;;;;;3.73;76.55;93941.34;5100767;28;20497;-47
2021/11/25 02:16:39;;;;;;;14.23;8.68;;;;;;;3.75;76.38;93946.31;5103201;28;20047;-47
2021/11/25 02:19:09;;;;;;;14.52;9.82;;;;;;;3.74;76.93;93942.09;5100169;28;20050;-49
2021/11/25 02:21:35;;;;;;;13.90;9.90;;;;;;;3.83;76.37;93947.34;5102438;28;20048;-49
2021/11/25 02:24:01;;;;;;;12.52;8.73;;;;;;;3.70;75.73;93917.75;5101195;28;20026;-48
2021/11/25 02:26:26;;;;;;;15.55;10.65;;;;;;;3.99;75.84;93930.22;5101091;28;20023;-50
2021/11/25 02:28:52;;;;;;;10.95;8.60;;;;;;;3.77;75.61;93941.09;5102922;28;20445;-50
2021/11/25 02:31:17;;;;;;;12.40;9.45;;;;;;;3.83;76.35;93941.88;5101633;28;20114;-50
2021/11/25 02:33:43;;;;;;;14.43;9.57;;;;;;;3.95;75.75;93942.66;5103610;28;20039;-53
2021/11/25 02:36:09;;;;;;;13.52;9.45;;;;;;;3.91;75.35;93950.34;5102643;28;20138;-48
2021/11/25 02:38:35;;;;;;;18.60;9.52;;;;;;;3.90;75.31;93949.59;5100783;28;20032;-48
2021/11/25 02:41:00;;;;;;;12.60;8.63;;;;;;;4.02;75.04;93944.91;5102462;28;20032;-48
2021/11/25 02:43:28;;;;;;;9.95;8.20;;;;;;;4.06;74.63;93951.63;5102420;27;20088;-47
2021/11/25 02:45:55;;;;;;;12.52;9.70;;;;;;;4.06;74.51;93946.16;5099988;28;20078;-48
2021/11/25 02:48:27;;;;;;;12.00;8.35;;;;;;;4.07;74.33;93947.63;5103823;28;20024;-46
2021/11/25 02:50:55;;;;;;;12.18;7.78;;;;;;;3.98;74.37;93936.94;5102475;28;20389;-47
2021/11/25 02:53:23;;;;;;;9.45;7.63;;;;;;;3.95;74.11;93943.41;5101610;27;20031;-46
2021/11/25 02:55:51;;;;;;;12.48;7.25;;;;;;;3.89;74.39;93939.16;5099788;28;20043;-47
2021/11/25 02:58:18;;;;;;;13.55;8.40;;;;;;;3.87;75.07;93936.19;5099280;28;20050;-48
2021/11/25 03:00:46;;;;;;;12.48;9.65;;;;;;;3.87;75.40;93939.66;5101305;28;20032;-47
2021/11/25 03:03:14;;;;;;;13.47;9.70;;;;;;;4.01;74.79;93940.66;5104355;28;20100;-49
2021/11/25 03:05:42;;;;;;;11.35;8.25;;;;;;;3.91;74.33;93939.41;5101777;28;20428;-46
2021/11/25 03:08:10;;;;;;;12.25;8.23;;;;;;;3.87;74.72;93936.94;5101122;27;20039;-46
2021/11/25 03:10:37;;;;;;;11.18;8.05;;;;;;;3.89;74.78;93929.00;5102291;28;20023;-48
2021/11/25 03:13:03;;;;;;;12.52;8.13;;;;;;;3.91;74.43;93940.16;5100702;28;20035;-46
2021/11/25 03:15:30;;;;;;;12.90;9.00;;;;;;;3.89;74.44;93925.50;5100511;28;20114;-47
2021/11/25 03:17:56;;;;;;;14.05;9.88;;;;;;;3.96;74.50;93925.78;5105547;28;20081;-46
2021/11/25 03:20:22;;;;;;;11.63;8.20;;;;;;;3.72;74.45;93926.22;5097897;28;20052;-46
2021/11/25 03:22:47;;;;;;;13.48;8.88;;;;;;;3.66;75.17;93930.91;5104061;28;20030;-47
2021/11/25 03:25:13;;;;;;;12.25;8.23;;;;;;;3.72;74.58;93926.22;5101026;28;20028;-47
2021/11/25 03:27:38;;;;;;;11.80;8.55;;;;;;;3.68;74.63;93924.97;5101888;28;20031;-46
2021/11/25 03:30:04;;;;;;;13.65;8.32;;;;;;;3.78;74.57;93921.53;5101052;28;20027;-46
2021/11/25 03:32:30;;;;;;;11.70;8.38;;;;;;;3.72;74.74;93920.75;5099582;28;20485;-48
2021/11/25 03:34:55;;;;;;;9.60;8.10;;;;;;;3.80;74.47;93921.78;5101835;28;20032;-48
2021/11/25 03:37:21;;;;;;;11.35;7.80;;;;;;;3.76;74.61;93918.53;5100675;28;20032;-46
2021/11/25 03:39:46;;;;;;;16.23;9.70;;;;;;;3.67;74.98;93924.22;5099161;28;20047;-48
2021/11/25 03:42:12;;;;;;;13.25;9.38;;;;;;;3.73;75.61;93922.25;5101677;28;20106;-47
2021/11/25 03:44:40;;;;;;;12.77;8.45;;;;;;;3.74;75.40;93921.00;5099069;28;20028;-47
2021/11/25 03:47:05;;;;;;;10.23;7.60;;;;;;;3.80;74.30;93931.94;5100740;28;20097;-47
2021/11/25 03:49:31;;;;;;;12.90;8.88;;;;;;;3.74;73.94;93925.72;5101480;28;20055;-47
2021/11/25 03:51:57;;;;;;;12.45;9.07;;;;;;;3.88;74.21;93924.75;5100043;28;20024;-49
2021/11/25 03:54:22;;;;;;;13.57;8.85;;;;;;;3.82;73.79;93924.00;5099827;28;20040;-48
2021/11/25 03:56:47;;;;;;;11.88;9.07;;;;;;;3.79;74.08;93922.25;5104750;28;20028;-49
2021/11/25 03:59:13;;;;;;;12.13;8.57;;;;;;;3.88;74.83;93922.00;5099928;28;20047;-47
2021/11/25 04:01:38;;;;;;;14.13;7.53;;;;;;;3.72;74.12;93925.47;5101905;28;20038;-47
2021/11/25 04:04:04;;;;;;;10.00;7.72;;;;;;;3.64;74.24;93925.19;5102098;28;20477;-47
2021/11/25 04:06:29;;;;;;;9.75;7.35;;;;;;;3.45;74.19;93905.03;5101125;28;20523;-47
2021/11/25 04:08:55;;;;;;;9.30;7.43;;;;;;;3.68;73.79;93919.50;5100251;28;20118;-47
2021/11/25 04:11:20;;;;;;;12.05;7.97;;;;;;;3.60;74.03;93924.69;5101075;28;20092;-45
2021/11/25 04:13:46;;;;;;;11.45;7.95;;;;;;;3.71;74.09;93915.78;5101789;28;20636;-47
2021/11/25 04:16:11;;;;;;;7.30;6.28;;;;;;;3.72;74.00;93917.28;5100036;27;20400;-47
2021/11/25 04:18:37;;;;;;;14.38;8.05;;;;;;;3.77;74.24;93906.34;5104020;28;20023;-48
2021/11/25 04:21:02;;;;;;;9.88;7.80;;;;;;;3.75;74.22;93919.75;5096410;28;20043;-47
2021/11/25 04:23:28;;;;;;;20.10;8.75;;;;;;;3.78;74.08;93907.13;5102111;27;20036;-47
2021/11/25 04:25:53;;;;;;;13.93;8.05;;;;;;;3.74;74.10;93912.06;5099852;28;20065;-46
2021/11/25 04:28:19;;;;;;;13.05;9.10;;;;;;;3.77;73.96;93898.16;5097979;28;20493;-48
2021/11/25 04:35:54;;;;;;;7.05;6.00;;;;;;;3.78;73.38;93896.94;5096954;28;20053;-46
2021/11/25 04:38:21;;;;;;;8.55;6.80;;;;;;;3.73;73.32;93905.09;5097556;28;20028;-46
2021/11/25 04:40:54;;;;;;;10.32;7.18;;;;;;;3.77;73.82;93897.41;5098893;28;20019;-46
2021/11/25 04:43:20;;;;;;;10.73;7.40;;;;;;;3.66;73.60;93876.28;5098618;28;20181;-46
2021/11/25 04:45:47;;;;;;;10.38;7.55;;;;;;;3.87;73.53;93895.97;5101047;28;20106;-46
2021/11/25 04:48:14;;;;;;;9.43;7.97;;;;;;;3.92;73.76;93891.75;5100393;28;20031;-47
2021/11/25 04:50:40;;;;;;;10.35;7.28;;;;;;;3.83;73.44;93888.00;5098584;28;20031;-46
2021/11/25 04:53:07;;;;;;;9.77;7.78;;;;;;;3.73;73.40;93886.00;5099343;28;20023;-46
2021/11/25 04:55:33;;;;;;;8.55;6.60;;;;;;;3.69;73.44;93877.28;5097043;28;20543;-45
2021/11/25 04:57:58;;;;;;;9.75;6.97;;;;;;;3.47;74.55;93874.50;5098315;28;20043;-46
2021/11/25 05:00:24;;;;;;;11.10;7.18;;;;;;;3.41;74.90;93873.75;5100079;28;20115;-46
2021/11/25 05:02:49;;;;;;;9.98;5.97;;;;;;;3.20;75.45;93873.22;5100179;28;20523;-46
2021/11/25 05:05:15;;;;;;;12.35;7.18;;;;;;;3.21;76.26;93884.84;5095873;28;20015;-46
2021/11/25 05:07:41;;;;;;;9.88;7.22;;;;;;;3.15;76.40;93882.09;5097983;28;20063;-46
2021/11/25 05:10:08;;;;;;;11.40;8.82;;;;;;;3.34;76.75;93882.41;5097339;28;20055;-45
2021/11/25 05:12:33;;;;;;;14.57;10.40;;;;;;;3.53;75.57;93888.94;5100040;28;20122;-46
2021/11/25 05:14:59;;;;;;;10.77;6.35;;;;;;;3.52;74.73;93887.44;5097596;28;20103;-47
2021/11/25 05:17:25;;;;;;;11.77;7.80;;;;;;;3.47;75.55;93886.19;5097014;28;20060;-47
2021/11/25 05:19:50;;;;;;;12.75;8.90;;;;;;;3.47;75.29;93885.44;5097656;28;20106;-46
2021/11/25 05:22:16;;;;;;;12.65;7.38;;;;;;;3.45;75.01;93891.38;5097652;28;20480;-45
2021/11/25 05:24:43;;;;;;;10.65;7.00;;;;;;;3.28;75.97;93895.28;5101883;28;20027;-45
2021/11/25 05:27:10;;;;;;;12.75;9.05;;;;;;;3.22;76.30;93884.38;5095899;28;20043;-46
2021/11/25 05:29:37;;;;;;;13.38;9.02;;;;;;;3.19;76.96;93888.06;5096157;28;20040;-46
2021/11/25 05:32:06;;;;;;;11.55;8.43;;;;;;;3.34;76.71;93890.59;5100919;28;20100;-46
2021/11/25 05:34:31;;;;;;;;;;;;;;;3.17;76.62;93884.34;5098480;28;20060;-47
2021/11/25 05:36:57;;;;;;;8.18;6.65;;;;;;;3.08;77.21;93883.31;5098382;28;19966;-47
2021/11/25 05:39:22;;;;;;;10.15;7.20;;;;;;;3.06;76.90;93872.16;5100427;28;20073;-47
2021/11/25 05:41:48;;;;;;;10.55;8.40;;;;;;;3.11;76.76;93881.59;5097849;28;20080;-48
2021/11/25 05:44:14;;;;;;;9.60;7.60;;;;;;;3.05;76.90;93889.03;5098784;28;20031;-47
2021/11/25 05:46:39;;;;;;;11.80;7.70;;;;;;;3.16;76.79;93891.03;5101894;28;20019;-48
2021/11/25 05:49:05;;;;;;;12.57;9.02;;;;;;;2.98;77.66;93892.97;5099803;28;20488;-48
2021/11/25 05:51:30;;;;;;;12.27;8.48;;;;;;;2.98;77.70;93884.78;5099065;28;20028;-46
2021/11/25 05:53:56;;;;;;;17.45;11.38;;;;;;;3.23;76.96;93883.13;5098282;28;20027;-47
2021/11/25 05:56:21;;;;;;;31.88;19.20;;;;;;;3.35;76.87;93883.91;5097572;28;20077;-46
2021/11/25 05:58:47;;;;;;;11.40;8.18;;;;;;;3.35;76.56;93884.66;5098073;28;20024;-46
2021/11/25 06:01:12;;;;;;;13.60;9.18;;;;;;;3.41;75.98;93893.63;5098544;28;20101;-47
2021/11/25 06:03:38;;;;;;;27.83;16.83;;;;;;;3.58;75.93;93880.00;5099165;28;20092;-49
2021/11/25 06:06:03;;;;;;;14.30;10.00;;;;;;;3.69;75.14;93882.75;5099711;28;20496;-45
2021/11/25 06:08:29;;;;;;;31.65;19.73;;;;;;;3.73;75.56;93881.28;5099688;28;20023;-46
2021/11/25 06:10:56;;;;;;;24.27;15.35;;;;;;;3.83;74.66;93895.47;5098438;28;20028;-45
2021/11/25 06:13:21;;;;;;;52.55;26.33;;;;;;;3.79;75.22;93890.22;5097695;28;20046;-43
2021/11/25 06:15:47;;;;;;;26.67;15.35;;;;;;;3.72;75.70;93881.78;5094494;28;20039;-45
2021/11/25 06:18:16;;;;;;;14.20;8.45;;;;;;;3.59;75.07;93898.63;5094490;28;20114;-45
2021/11/25 06:20:41;;;;;;;14.52;10.32;;;;;;;3.57;75.50;93905.81;5093641;28;20052;-46
2021/11/25 06:23:07;;;;;;;14.20;9.88;;;;;;;3.58;75.41;93913.50;5094866;28;20586;-46
2021/11/25 06:25:33;;;;;;;12.48;8.18;;;;;;;3.53;75.41;93911.50;5092141;28;20031;-45
2021/11/25 06:27:58;;;;;;;9.70;7.72;;;;;;;3.69;75.20;93907.34;5093139;28;20031;-44
2021/11/25 06:30:24;;;;;;;10.13;7.47;;;;;;;3.56;74.84;93913.25;5096797;28;20028;-45
2021/11/25 06:32:51;;;;;;;8.57;7.55;;;;;;;3.55;75.06;93916.50;5094589;28;20051;-46
2021/11/25 06:35:18;;;;;;;10.30;7.55;;;;;;;3.52;75.71;93914.72;5095356;28;20409;-45
2021/11/25 06:37:49;;;;;;;13.77;9.30;;;;;;;3.44;76.40;93916.47;5096448;28;20028;-45
2021/11/25 06:40:18;;;;;;;14.13;9.70;;;;;;;3.56;76.66;93917.97;5096561;28;20420;-46
2021/11/25 06:42:44;;;;;;;11.65;9.02;;;;;;;3.64;75.63;93921.72;5093316;28;20050;-47
2021/11/25 06:45:10;;;;;;;12.57;8.13;;;;;;;3.57;75.44;93912.00;5094351;28;20519;-47
2021/11/25 06:47:36;;;;;;;9.77;8.07;;;;;;;3.52;75.72;93920.94;5096536;28;20541;-45
2021/11/25 06:50:07;;;;;;;11.43;8.55;;;;;;;3.55;76.25;93916.50;5094555;28;20425;-45
2021/11/25 06:52:33;;;;;;;13.15;7.57;;;;;;;3.73;74.15;93919.50;5093608;28;20543;-45
2021/11/25 06:54:58;;;;;;;7.80;7.00;;;;;;;3.72;74.56;93915.31;5092269;28;20036;-46
2021/11/25 06:57:24;;;;;;;9.48;7.28;;;;;;;3.67;74.18;93909.81;5091543;28;20464;-45
2021/11/25 06:59:49;;;;;;;9.18;7.25;;;;;;;3.75;74.19;93916.28;5094355;28;20023;-45
2021/11/25 07:02:15;;;;;;;17.15;7.45;;;;;;;3.80;75.06;93905.38;5099029;28;20077;-44
2021/11/25 07:04:40;;;;;;;12.80;9.43;;;;;;;3.89;74.62;93912.59;5098130;28;20036;-44
2021/11/25 07:07:06;;;;;;;17.45;9.73;;;;;;;4.01;74.34;93914.09;5099226;27;20085;-45
2021/11/25 07:09:32;;;;;;;10.57;6.97;;;;;;;4.23;73.50;93913.38;5094986;28;20039;-44
2021/11/25 07:11:57;;;;;;;8.43;6.88;;;;;;;4.17;72.78;93905.19;5097829;27;20035;-44
2021/11/25 07:14:23;;;;;;;16.23;11.88;;;;;;;4.23;72.46;93878.59;5099698;28;20081;-45
2021/11/25 07:16:48;;;;;;;11.68;7.85;;;;;;;4.54;72.13;93900.19;5097378;28;20459;-45
2021/11/25 07:19:13;;;;;;;10.45;7.90;;;;;;;4.61;71.29;93899.69;5096948;28;20032;-47
2021/11/25 07:21:39;;;;;;;17.55;11.65;;;;;;;4.39;71.55;93896.97;5097250;28;20051;-46
2021/11/25 07:24:05;;;;;;;8.68;6.38;;;;;;;4.34;71.85;93895.00;5098896;28;20032;-46
2021/11/25 07:26:30;;;;;;;11.27;7.80;;;;;;;4.47;72.13;93892.50;5095609;28;20024;-45
2021/11/25 07:28:57;;;;;;;48.13;28.02;;;;;;;4.63;71.70;93897.19;5098356;28;20031;-45
2021/11/25 07:31:28;;;;;;;9.32;7.60;;;;;;;4.74;71.17;93899.19;5096892;28;20515;-44
2021/11/25 07:33:53;;;;;;;8.63;6.38;;;;;;;4.74;69.91;93899.19;5097589;28;20064;-45
2021/11/25 07:36:19;;;;;;;9.75;7.35;;;;;;;4.59;70.65;93893.97;5097735;28;20059;-45
2021/11/25 07:38:44;;;;;;;28.00;16.70;;;;;;;4.63;71.59;93891.72;5098014;28;20022;-47
2021/11/25 07:41:10;;;;;;;11.30;7.53;;;;;;;4.78;70.99;93893.44;5096966;28;20027;-46
2021/11/25 07:43:35;;;;;;;8.07;6.60;;;;;;;4.92;69.60;93898.63;5095694;28;20057;-46
2021/11/25 07:46:01;;;;;;;8.82;7.00;;;;;;;4.99;69.96;93897.38;5097453;28;20024;-46
2021/11/25 07:48:26;;;;;;;12.30;9.05;;;;;;;5.09;70.21;93893.13;5094976;28;20024;-46
2021/11/25 07:50:52;;;;;;;22.13;11.13;;;;;;;5.31;70.07;93899.25;5096113;28;20024;-45
2021/11/25 07:53:17;;;;;;;12.93;7.68;;;;;;;5.47;68.28;93896.97;5096639;28;20058;-46
2021/11/25 07:55:43;;;;;;;7.50;5.65;;;;;;;5.37;67.72;93889.03;5095379;28;20429;-45
2021/11/25 07:58:08;;;;;;;12.90;8.68;;;;;;;5.55;68.57;93898.66;5097951;28;20019;-45
2021/11/25 08:00:34;;;;;;;6.32;5.28;;;;;;;5.66;65.70;93903.34;5097187;28;20131;-44
2021/11/25 08:02:59;;;;;;;7.63;6.18;;;;;;;5.85;66.11;93898.78;5096228;28;20027;-46
2021/11/25 08:05:26;;;;;;;5.40;4.57;;;;;;;6.08;64.62;93887.19;5094937;28;20756;-45
2021/11/25 08:07:54;;;;;;;7.97;6.10;;;;;;;6.11;64.68;93893.63;5095599;28;20047;-44
2021/11/25 08:10:20;;;;;;;12.80;4.63;;;;;;;6.18;63.15;93881.38;5093774;28;20023;-44
2021/11/25 08:12:46;;;;;;;6.70;4.85;;;;;;;6.09;64.09;93880.44;5095399;28;20036;-44
2021/11/25 08:15:12;;;;;;;6.18;4.80;;;;;;;6.21;63.55;93881.09;5096935;28;20031;-44
2021/11/25 08:17:38;;;;;;;8.45;5.60;;;;;;;6.23;63.03;93845.69;5097398;28;20026;-45
2021/11/25 08:20:04;;;;;;;5.80;4.75;;;;;;;6.65;63.07;93875.25;5097948;28;20047;-44
2021/11/25 08:22:29;;;;;;;6.18;4.93;;;;;;;6.87;61.45;93879.78;5097394;28;20054;-45
2021/11/25 08:24:55;;;;;;;7.40;4.60;;;;;;;6.91;61.23;93869.25;5099424;28;20489;-45
2021/11/25 08:27:21;;;;;;;4.63;3.60;;;;;;;7.16;59.40;93853.50;5097304;28;20046;-46
2021/11/25 08:29:46;;;;;;;4.15;3.75;;;;;;;7.95;57.75;93863.00;5097454;28;20032;-46
2021/11/25 08:32:12;;;;;;;13.02;9.32;;;;;;;9.53;55.40;93843.47;5099251;28;20039;-45
2021/11/25 08:34:39;;;;;;;4.47;3.53;;;;;;;11.29;50.15;93851.59;5097690;28;20103;-45
2021/11/25 08:37:04;;;;;;;4.70;3.40;;;;;;;11.29;47.79;93848.81;5101052;28;20441;-47
2021/11/25 08:39:30;;;;;;;4.88;3.85;;;;;;;12.29;44.98;93839.66;5097451;28;20040;-45
2021/11/25 08:41:55;;;;;;;4.18;2.75;;;;;;;11.60;44.33;93838.69;5098039;28;20020;-44
2021/11/25 08:44:21;;;;;;;3.95;3.25;;;;;;;12.08;45.03;93826.69;5099724;28;20024;-46
2021/11/25 08:46:46;;;;;;;4.82;3.83;;;;;;;13.26;43.19;93824.38;5097905;28;20464;-46
2021/11/25 08:49:12;;;;;;;3.40;3.10;;;;;;;13.32;40.58;93828.44;5097896;28;20027;-45
2021/11/25 08:51:38;;;;;;;5.25;3.75;;;;;;;13.16;40.55;93813.16;5097424;28;20028;-45
2021/11/25 08:54:03;;;;;;;3.58;3.28;;;;;;;12.36;42.85;93820.31;5096456;28;20045;-45
2021/11/25 08:56:29;;;;;;;3.97;3.60;;;;;;;12.81;41.59;93823.13;5094339;28;20031;-45
2021/11/25 08:58:55;;;;;;;5.35;4.57;;;;;;;12.35;42.48;93815.31;5097879;28;20031;-46
2021/11/25 09:01:21;;;;;;;5.15;4.38;;;;;;;11.74;44.24;93820.69;5096143;28;20066;-46
2021/11/25 09:03:46;;;;;;;5.25;4.47;;;;;;;10.73;46.17;93823.19;5097053;28;20051;-47
2021/11/25 09:06:13;;;;;;;5.97;4.10;;;;;;;10.44;47.68;93817.63;5097613;28;20412;-47
2021/11/25 09:08:39;;;;;;;8.63;4.85;;;;;;;9.94;49.16;93813.25;5098426;28;20032;-46
2021/11/25 09:11:04;;;;;;;7.18;4.60;;;;;;;9.32;49.56;93809.59;5098681;28;20526;-46
2021/11/25 09:13:30;;;;;;;6.47;4.72;;;;;;;8.95;50.58;93801.56;5097286;28;20024;-45
2021/11/25 09:15:55;;;;;;;7.78;5.80;;;;;;;8.22;51.73;93809.56;5095961;28;20081;-45
2021/11/25 09:18:21;;;;;;;6.65;4.38;;;;;;;7.84;54.45;93802.69;5095494;28;20055;-45
2021/11/25 09:20:47;;;;;;;10.05;5.22;;;;;;;7.77;55.91;93806.03;5095176;28;20128;-47
2021/11/25 09:23:17;;;;;;;7.78;5.85;;;;;;;8.17;53.87;93802.88;5095830;28;20027;-46
2021/11/25 09:25:44;;;;;;;8.45;5.65;;;;;;;8.09;54.23;93790.28;5096192;28;20043;-45
2021/11/25 09:28:12;;;;;;;5.63;4.95;;;;;;;7.78;54.96;93793.75;5095239;28;20031;-47
2021/11/25 09:30:38;;;;;;;8.25;5.70;;;;;;;7.82;55.32;93794.22;5097882;28;20019;-45
2021/11/25 09:33:04;;;;;;;7.38;6.05;;;;;;;8.05;54.95;93792.59;5101500;28;20043;-45
2021/11/25 09:35:29;;;;;;;6.90;5.25;;;;;;;8.02;53.89;93791.63;5100143;28;20030;-48
2021/11/25 09:37:55;;;;;;;14.05;6.90;;;;;;;7.92;55.59;93787.06;5096670;28;21254;-46
2021/11/25 09:40:27;;;;;;;7.85;5.70;;;;;;;8.10;53.48;93792.50;5097141;28;20460;-47
2021/11/25 09:43:01;;;;;;;16.48;7.85;;;;;;;7.82;55.60;93766.72;5096238;28;20032;-46
2021/11/25 09:45:27;;;;;;;11.45;9.05;;;;;;;7.88;55.26;93786.63;5097216;28;20024;-47
2021/11/25 09:47:57;;;;;;;10.77;7.82;;;;;;;7.72;55.83;93777.34;5097793;28;20085;-45
2021/11/25 09:50:25;;;;;;;8.70;6.93;;;;;;;7.35;56.63;93780.88;5099324;28;20031;-45
2021/11/25 09:52:52;;;;;;;9.20;6.95;;;;;;;7.31;56.70;93788.66;5099223;28;20027;-47
2021/11/25 09:55:18;;;;;;;9.75;6.82;;;;;;;6.72;56.92;93775.91;5095312;28;20028;-47
2021/11/25 09:57:44;;;;;;;9.25;7.03;;;;;;;6.68;57.58;93793.91;5097369;28;20036;-48
2021/11/25 10:00:10;;;;;;;16.52;10.75;;;;;;;6.32;58.48;93787.03;5097926;28;20027;-48
2021/11/25 10:02:35;;;;;;;17.25;10.98;;;;;;;6.31;58.84;93785.53;5101759;28;20660;-48
2021/11/25 10:05:01;;;;;;;28.58;16.67;;;;;;;6.17;59.06;93764.75;5097757;28;20023;-47
2021/11/25 10:07:33;;;;;;;10.68;6.93;;;;;;;6.15;59.87;93787.19;5095399;28;20027;-48
2021/11/25 10:10:17;;;;;;;11.93;8.90;;;;;;;6.02;60.79;93782.31;5095471;28;20416;-46
2021/11/25 10:12:43;;;;;;;13.30;9.43;;;;;;;6.13;60.48;93784.97;5094925;28;20039;-47
2021/11/25 10:15:26;;;;;;;9.00;7.30;;;;;;;6.29;59.76;93783.31;5097551;28;20023;-47
2021/11/25 10:17:53;;;;;;;8.82;6.85;;;;;;;6.51;59.57;93776.88;5096175;28;20031;-47
2021/11/25 10:20:21;;;;;;;12.85;9.75;;;;;;;6.59;60.78;93780.53;5097426;28;20043;-47
2021/11/25 10:23:02;;;;;;;8.18;6.20;;;;;;;6.75;59.78;93779.63;5096430;28;20494;-47
2021/11/25 10:25:47;;;;;;;8.52;6.55;;;;;;;6.57;58.82;93772.06;5097865;28;20047;-47
2021/11/25 10:28:20;;;;;;;9.65;6.72;;;;;;;6.68;59.02;93767.22;5096664;28;20036;-48
2021/11/25 10:30:45;;;;;;;9.18;7.43;;;;;;;6.81;58.59;93758.34;5098809;28;20105;-48
2021/11/25 10:33:11;;;;;;;11.85;8.27;;;;;;;6.90;58.72;93766.22;5098850;28;20101;-48
2021/11/25 10:36:04;;;;;;;9.30;6.15;;;;;;;6.94;58.77;93757.69;5095565;28;20076;-47
2021/11/25 10:38:39;;;;;;;7.95;5.72;;;;;;;6.79;59.41;93764.34;5097832;28;20020;-47
2021/11/25 10:41:15;;;;;;;8.57;6.68;;;;;;;6.99;59.00;93754.88;5102206;28;20108;-47
2021/11/25 10:43:40;;;;;;;5.10;4.47;;;;;;;7.04;58.57;93754.06;5100613;28;20072;-48
2021/11/25 10:46:06;;;;;;;5.38;4.65;;;;;;;6.96;58.40;93744.19;5102484;28;20552;-47
2021/11/25 10:48:38;;;;;;;7.10;4.90;;;;;;;6.81;58.98;93739.88;5101857;28;20020;-46
2021/11/25 10:51:26;;;;;;;5.03;4.53;;;;;;;6.81;59.54;93745.38;5101590;28;20499;-46
2021/11/25 10:54:08;;;;;;;5.13;4.63;;;;;;;6.65;59.02;93738.06;5101971;28;20480;-46
2021/11/25 10:56:55;;;;;;;5.05;3.90;;;;;;;6.71;58.80;93732.53;5102187;28;20062;-46
2021/11/25 10:59:41;;;;;;;5.80;5.20;;;;;;;6.54;60.23;93732.69;5097095;28;20063;-47
2021/11/25 11:02:25;;;;;;;6.95;5.03;;;;;;;6.26;60.52;93729.50;5096876;28;20117;-45
2021/11/25 11:04:51;;;;;;;7.00;5.38;;;;;;;6.26;60.79;93729.50;5097093;28;20023;-46
2021/11/25 11:07:31;;;;;;;6.45;4.95;;;;;;;6.29;60.68;93719.50;5097236;28;20239;-46
2021/11/25 11:09:58;;;;;;;6.60;4.60;;;;;;;6.33;60.34;93709.75;5096831;28;20319;-47
2021/11/25 11:12:58;;;;;;;5.90;3.92;;;;;;;6.44;59.96;93711.63;5097550;28;20039;-47
2021/11/25 11:15:27;;;;;;;7.75;5.53;;;;;;;6.61;59.83;93712.16;5098210;28;20089;-47
2021/11/25 11:20:32;;;;;;;6.43;4.93;;;;;;;6.17;60.55;93707.94;5097670;28;20044;-46
2021/11/25 11:23:01;;;;;;;6.72;5.38;;;;;;;6.17;60.78;93704.44;5100989;28;20027;-46
2021/11/25 11:25:29;;;;;;;8.70;6.22;;;;;;;6.27;61.11;93697.34;5097097;28;20047;-44
2021/11/25 11:27:57;;;;;;;10.50;7.70;;;;;;;6.55;60.76;93695.78;5099949;28;20150;-46
2021/11/25 11:30:24;;;;;;;7.68;5.57;;;;;;;6.66;60.80;93705.88;5097694;28;20036;-49
2021/11/25 11:32:51;;;;;;;25.15;14.43;;;;;;;6.13;61.24;93691.00;5098339;28;20539;-48
2021/11/25 11:35:22;;;;;;;15.10;9.63;;;;;;;6.35;60.64;93690.78;5098939;28;20027;-49
2021/11/25 11:37:54;;;;;;;10.43;6.97;;;;;;;6.43;60.10;93691.66;5095859;28;20092;-49
2021/11/25 11:40:23;;;;;;;9.15;7.50;;;;;;;6.59;61.11;93677.03;5102055;28;20091;-47
2021/11/25 11:42:50;;;;;;;6.97;6.25;;;;;;;6.69;59.94;93675.41;5097613;28;20542;-47